Time;durP1;ratioP1;P1;durP2;ratioP2;P2;SDS_P1;SDS_P2;PMS_P1;PMS_P2;Temp;Humidity;BMP_temperature;BMP_pressure;BME280_temperature;BME280_humidity;BME280_pressure;Samples;Min_cycle;Max_cycle;Signal;HPM_P1;HPM_P2
2023/04/19 00:01:28;;;;;;;16.42;14.57;;;11.80;99.90;;;12.08;71.00;102607.47;5052127;28;20128;-70
2023/04/19 00:03:56;;;;;;;14.65;13.07;;;11.80;99.90;;;12.00;71.10;102605.56;5052116;28;20052;-70
2023/04/19 00:06:29;;;;;;;17.05;14.10;;;11.80;99.90;;;12.09;71.09;102608.38;5052000;28;20445;-70
2023/04/19 00:08:57;;;;;;;16.15;14.13;;;11.80;99.90;;;12.04;71.35;102607.41;5052111;28;20099;-70
2023/04/19 00:11:26;;;;;;;17.15;14.85;;;11.80;99.90;;;12.08;71.25;102604.81;5052584;28;20052;-70
2023/04/19 00:13:54;;;;;;;16.70;14.10;;;11.80;99.90;;;11.93;71.42;102606.31;5051847;28;20047;-70
2023/04/19 00:16:24;;;;;;;19.33;14.57;;;11.70;99.90;;;11.91;71.94;102586.81;5051956;28;20059;-70
2023/04/19 00:18:52;;;;;;;15.50;13.82;;;11.70;99.90;;;11.91;71.79;102600.97;5052539;28;20060;-70
2023/04/19 00:21:20;;;;;;;15.65;14.05;;;11.70;99.90;;;11.82;71.86;102605.22;5052529;28;20044;-70
2023/04/19 00:23:49;;;;;;;16.80;15.00;;;11.60;99.90;;;11.74;72.17;102608.63;5051949;28;20072;-70
2023/04/19 00:26:17;;;;;;;15.60;14.00;;;11.50;99.90;;;11.68;72.38;102591.72;5053842;28;20376;-70
2023/04/19 00:28:49;;;;;;;14.43;12.93;;;11.50;99.90;;;11.68;72.41;102604.97;5055841;28;20048;-70
2023/04/19 00:31:18;;;;;;;16.27;13.77;;;11.40;99.90;;;11.62;72.45;102595.13;5055785;28;20159;-70
2023/04/19 00:33:47;;;;;;;16.95;14.40;;;11.40;99.90;;;11.60;72.93;102590.63;5054377;28;20067;-70
2023/04/19 00:36:16;;;;;;;15.77;13.70;;;11.40;99.90;;;11.53;72.79;102587.00;5055467;28;20136;-70
2023/04/19 00:38:47;;;;;;;16.08;13.93;;;11.30;99.90;;;11.61;73.14;102600.41;5055620;28;20119;-70
2023/04/19 00:41:16;;;;;;;18.05;14.02;;;11.30;99.90;;;11.61;73.07;102595.09;5055551;28;20052;-70
2023/04/19 00:43:44;;;;;;;15.45;13.85;;;11.40;99.90;;;11.62;73.05;102596.88;5054171;28;20059;-70
2023/04/19 00:46:14;;;;;;;16.02;13.73;;;11.40;99.90;;;11.59;73.08;102597.69;5053982;28;20061;-70
2023/04/19 00:48:43;;;;;;;16.17;14.02;;;11.40;99.90;;;11.64;72.98;102589.84;5070790;28;20075;-70
2023/04/19 00:51:14;;;;;;;19.38;13.98;;;11.40;99.90;;;11.65;72.97;102587.25;5054081;28;20043;-70
2023/04/19 00:53:44;;;;;;;16.83;14.60;;;11.50;99.90;;;11.62;72.93;102591.56;5055266;28;20041;-70
2023/04/19 00:56:14;;;;;;;18.67;14.70;;;11.40;99.90;;;11.62;73.12;102591.56;5055233;28;20446;-70
2023/04/19 00:58:42;;;;;;;16.98;14.02;;;11.40;99.90;;;11.70;72.81;102588.25;5070702;28;20578;-70
2023/04/19 01:01:11;;;;;;;16.85;14.20;;;11.50;99.90;;;11.69;73.11;102589.09;5053610;28;20053;-70
2023/04/19 01:03:39;;;;;;;17.65;14.10;;;11.50;99.90;;;11.70;73.07;102577.63;5055465;28;20075;-70
2023/04/19 01:06:08;;;;;;;16.80;14.93;;;11.50;99.90;;;11.71;73.19;102590.00;5055101;28;20041;-70
2023/04/19 01:08:38;;;;;;;16.05;13.65;;;11.50;99.90;;;11.77;72.90;102576.88;5053737;28;20041;-70
2023/04/19 01:11:07;;;;;;;16.00;14.30;;;11.50;99.90;;;11.80;72.85;102578.69;5055067;28;20439;-70
2023/04/19 01:13:37;;;;;;;17.75;14.50;;;11.60;99.90;;;11.76;73.36;102576.84;5070311;28;20405;-70
2023/04/19 01:16:07;;;;;;;16.15;14.38;;;11.60;99.90;;;11.72;73.05;102567.94;5054885;28;20044;-70
2023/04/19 01:18:36;;;;;;;16.75;14.20;;;11.60;99.90;;;11.76;73.29;102571.53;5054885;28;20474;-70
2023/04/19 01:21:05;;;;;;;17.98;14.63;;;11.50;99.90;;;11.68;73.50;102573.16;5053770;28;20469;-71
2023/04/19 01:23:35;;;;;;;18.90;15.50;;;11.50;99.90;;;11.76;73.49;102569.78;5070129;28;20099;-70
2023/04/19 01:26:04;;;;;;;17.87;14.80;;;11.50;99.90;;;11.81;73.41;102576.94;5054709;28;20135;-70
2023/04/19 01:28:32;;;;;;;18.95;15.13;;;11.60;99.90;;;11.70;73.87;102574.97;5054938;28;20295;-70
2023/04/19 01:31:01;;;;;;;18.35;15.38;;;11.50;99.90;;;11.72;74.23;102572.34;5054360;28;20407;-70
2023/04/19 01:33:29;;;;;;;17.75;15.93;;;11.50;99.90;;;11.73;74.26;102561.78;5054459;28;20067;-70
2023/04/19 01:35:57;;;;;;;19.50;14.80;;;11.50;99.90;;;11.63;74.38;102572.16;5053057;28;20053;-70
2023/04/19 01:38:26;;;;;;;18.75;16.67;;;11.40;99.90;;;11.69;74.68;102559.91;5053372;28;20072;-70
2023/04/19 01:40:56;;;;;;;18.30;15.50;;;11.50;99.90;;;11.67;74.92;102552.84;5053066;28;20458;-70
2023/04/19 01:43:25;;;;;;;21.60;16.48;;;11.50;99.90;;;11.63;75.50;102554.47;5053162;28;20481;-70
2023/04/19 01:45:53;;;;;;;19.50;15.80;;;11.50;99.90;;;11.67;75.44;102558.13;5054342;28;20090;-70
2023/04/19 01:48:21;;;;;;;18.50;15.27;;;11.50;99.90;;;11.76;75.47;102553.88;5054299;28;20041;-71
2023/04/19 01:50:50;;;;;;;19.40;15.52;;;11.50;99.90;;;11.79;75.33;102553.94;5053980;28;20060;-70
2023/04/19 01:53:18;;;;;;;22.77;15.73;;;11.50;99.90;;;11.91;75.42;102562.94;5052885;28;20449;-70
2023/04/19 01:55:46;;;;;;;19.17;15.68;;;11.60;99.90;;;11.85;75.41;102542.53;5054057;28;20151;-70
2023/04/19 01:58:16;;;;;;;16.48;14.77;;;11.70;99.90;;;11.95;75.02;102554.19;5053801;28;20064;-70
2023/04/19 02:00:45;;;;;;;18.10;15.15;;;11.70;99.90;;;11.91;75.34;102552.34;5052480;28;20045;-71
2023/04/19 02:03:13;;;;;;;17.70;14.98;;;11.70;99.90;;;11.83;75.31;102548.69;5053943;28;20098;-70
2023/04/19 02:05:43;;;;;;;18.67;16.15;;;11.70;99.90;;;11.81;75.68;102556.59;5052638;28;20617;-71
2023/04/19 02:08:11;;;;;;;17.73;14.85;;;11.60;99.90;;;11.76;75.83;102552.97;5054177;28;20051;-70
2023/04/19 02:10:39;;;;;;;19.02;15.45;;;11.60;99.90;;;11.75;75.81;102557.38;5053596;28;20395;-70
2023/04/19 02:13:08;;;;;;;18.73;15.48;;;11.50;99.90;;;11.72;75.83;102551.16;5052573;28;20528;-70
2023/04/19 02:15:38;;;;;;;18.00;16.00;;;11.50;99.90;;;11.62;75.99;102552.69;5052432;28;20080;-70
2023/04/19 02:18:07;;;;;;;17.95;15.68;;;11.40;99.90;;;11.39;76.28;102519.59;5052468;28;20162;-70
2023/04/19 02:20:35;;;;;;;18.30;15.25;;;11.30;99.90;;;11.55;76.33;102548.16;5068971;28;20047;-70
2023/04/19 02:23:04;;;;;;;18.40;15.48;;;11.40;99.90;;;11.45;76.69;102543.56;5068767;28;20088;-70
2023/04/19 02:25:34;;;;;;;19.23;15.73;;;11.30;99.90;;;11.34;77.00;102550.38;5052242;28;20052;-70
2023/04/19 02:28:02;;;;;;;21.88;15.82;;;11.20;99.90;;;11.24;77.34;102537.84;5053578;28;20542;-70
2023/04/19 02:30:30;;;;;;;18.33;15.65;;;11.10;99.90;;;11.25;78.01;102554.59;5053435;28;20049;-71
2023/04/19 02:33:00;;;;;;;19.30;16.35;;;11.00;99.90;;;11.21;78.01;102550.09;5052198;28;20072;-70
2023/04/19 02:35:29;;;;;;;20.57;15.93;;;11.00;99.90;;;11.23;78.18;102549.28;5053175;28;20065;-70
2023/04/19 02:37:59;;;;;;;21.17;16.55;;;11.00;99.90;;;11.02;78.50;102546.22;5053163;28;20044;-70
2023/04/19 02:40:27;;;;;;;19.83;15.68;;;10.90;99.90;;;11.07;78.97;102541.88;5053327;28;20425;-70
2023/04/19 02:42:58;;;;;;;18.67;15.57;;;10.90;99.90;;;11.03;79.06;102550.66;5053289;28;20045;-70
2023/04/19 02:45:27;;;;;;;21.02;16.85;;;10.80;99.90;;;10.93;79.89;102553.06;5052955;28;20045;-70
2023/04/19 02:47:55;;;;;;;18.92;16.77;;;10.70;99.90;;;10.96;79.85;102540.78;5053176;28;20478;-70
2023/04/19 02:50:27;;;;;;;18.42;16.23;;;10.70;99.90;;;11.07;79.70;102541.03;5052702;28;20497;-70
2023/04/19 02:52:55;;;;;;;20.33;17.60;;;10.80;99.90;;;10.97;80.04;102545.22;5051916;28;20057;-70
2023/04/19 02:55:25;;;;;;;22.85;17.92;;;10.80;99.90;;;10.98;80.05;102541.72;5051762;28;20052;-70
2023/04/19 02:58:03;;;;;;;20.35;16.85;;;10.80;99.90;;;11.02;80.35;102551.50;5051749;28;20045;-70
2023/04/19 03:00:34;;;;;;;21.83;17.17;;;10.80;99.90;;;10.81;81.31;102549.31;5051752;28;20048;-70
2023/04/19 03:03:08;;;;;;;20.15;17.23;;;10.70;99.90;;;10.80;81.63;102546.63;5051684;28;20553;-71
2023/04/19 03:05:38;;;;;;;19.80;17.10;;;10.60;99.90;;;10.88;81.68;102543.28;5051581;28;20059;-70
2023/04/19 03:08:07;;;;;;;19.60;17.10;;;10.70;99.90;;;10.76;82.06;102563.31;5051558;28;20053;-70
2023/04/19 03:10:35;;;;;;;23.20;17.90;;;10.60;99.90;;;10.85;82.03;102543.22;5052784;28;20072;-70
2023/04/19 03:13:03;;;;;;;21.05;17.73;;;10.60;99.90;;;10.96;82.15;102558.41;5051557;28;20048;-70
2023/04/19 03:15:32;;;;;;;24.33;18.00;;;10.70;99.90;;;10.99;81.85;102551.47;5051456;28;20533;-70
2023/04/19 03:18:00;;;;;;;24.60;18.00;;;10.80;99.90;;;10.81;82.26;102548.41;5052667;28;20037;-70
2023/04/19 03:20:29;;;;;;;26.65;19.25;;;10.70;99.90;;;10.86;82.60;102546.75;5051406;28;20049;-70
2023/04/19 03:23:00;;;;;;;24.02;19.08;;;10.70;99.90;;;10.86;82.97;102541.44;5051400;28;20521;-70
2023/04/19 03:25:28;;;;;;;23.60;18.63;;;10.70;99.90;;;10.99;82.81;102548.81;5051529;28;20053;-70
2023/04/19 03:28:08;;;;;;;22.30;18.10;;;10.80;99.90;;;11.09;82.72;102557.84;5051512;28;20499;-70
2023/04/19 03:30:56;;;;;;;22.65;18.38;;;10.90;99.90;;;11.04;82.53;102555.06;5052229;28;20048;-70
2023/04/19 03:33:25;;;;;;;21.42;18.02;;;10.90;99.90;;;11.06;82.78;102550.72;5052936;28;20037;-70
2023/04/19 03:35:54;;;;;;;25.00;17.83;;;10.80;99.90;;;11.17;82.38;102550.94;5050997;28;20080;-70
2023/04/19 03:38:24;;;;;;;22.40;18.15;;;11.00;99.90;;;11.12;82.50;102550.84;5051288;28;20045;-70
2023/04/19 03:40:54;;;;;;;23.63;18.70;;;10.90;99.90;;;11.08;82.47;102556.94;5068044;28;20418;-70
2023/04/19 03:43:24;;;;;;;31.08;19.00;;;10.90;99.90;;;11.02;83.08;102554.16;5051314;28;20490;-70
2023/04/19 03:45:52;;;;;;;21.95;18.35;;;10.90;99.90;;;11.05;83.00;102548.94;5051209;28;20052;-70
2023/04/19 03:48:20;;;;;;;22.33;17.55;;;10.90;99.90;;;11.10;83.03;102541.97;5051236;28;20055;-70
2023/04/19 03:50:49;;;;;;;21.85;18.92;;;10.90;99.90;;;11.19;82.95;102542.13;5052210;28;20048;-70
2023/04/19 03:53:19;;;;;;;25.05;18.45;;;11.00;99.90;;;11.13;82.94;102557.03;5051240;28;20114;-70
2023/04/19 03:55:49;;;;;;;23.38;18.88;;;10.90;99.90;;;11.17;82.75;102554.47;5052348;28;20091;-70
2023/04/19 03:58:17;;;;;;;22.60;18.23;;;10.90;99.90;;;11.13;82.92;102536.72;5052430;28;20037;-70
2023/04/19 04:00:52;;;;;;;22.13;18.40;;;10.90;99.90;;;11.11;83.01;102546.38;5052242;28;20045;-70
2023/04/19 04:03:21;;;;;;;20.98;18.52;;;10.90;99.90;;;10.97;83.63;102539.94;5056235;28;20041;-70
2023/04/19 04:05:50;;;;;;;22.02;17.48;;;10.80;99.90;;;10.92;83.33;102507.16;5054927;28;20095;-70
2023/04/19 04:08:18;;;;;;;24.17;18.17;;;10.90;99.90;;;11.29;83.13;102552.06;5055884;28;20509;-70
2023/04/19 04:10:48;;;;;;;25.00;18.60;;;11.00;99.90;;;11.28;82.99;102557.34;5056076;28;20127;-70
2023/04/19 04:13:17;;;;;;;23.23;18.63;;;11.10;99.90;;;11.26;83.00;102549.38;5054763;28;20099;-70
2023/04/19 04:15:51;;;;;;;23.15;18.52;;;11.10;99.90;;;11.09;83.37;102561.34;5071413;28;20562;-70
2023/04/19 04:18:20;;;;;;;25.30;18.70;;;10.90;99.90;;;11.26;83.19;102557.31;5054682;28;20044;-70
2023/04/19 04:20:50;;;;;;;21.42;18.65;;;11.10;99.90;;;11.46;82.68;102558.56;5054622;28;20107;-70
2023/04/19 04:23:20;;;;;;;24.95;18.65;;;11.20;99.90;;;11.32;82.56;102554.78;5054552;28;20119;-70
2023/04/19 04:25:59;;;;;;;22.77;17.95;;;11.20;99.90;;;11.36;82.71;102556.59;5054362;28;20136;-70
2023/04/19 04:28:39;;;;;;;22.27;17.75;;;11.20;99.90;;;11.51;82.79;102567.53;5054190;28;20218;-70
2023/04/19 04:31:08;;;;;;;21.00;16.88;;;11.20;99.90;;;11.33;82.92;102556.56;5054401;28;20046;-70
2023/04/19 04:33:37;;;;;;;22.67;17.67;;;11.20;99.90;;;11.44;82.59;102572.69;5054352;28;20135;-70
2023/04/19 04:36:10;;;;;;;;;;;11.30;99.90;;;11.46;82.79;102565.63;5054330;28;20060;-70
2023/04/19 04:38:40;;;;;;;23.30;17.20;;;11.20;99.90;;;11.46;82.61;102565.63;5054318;28;19925;-70
2023/04/19 04:41:11;;;;;;;23.70;18.50;;;11.30;99.90;;;11.48;82.63;102564.78;5054258;28;20051;-70
2023/04/19 04:43:40;;;;;;;20.67;17.08;;;11.30;99.90;;;11.57;82.58;102567.66;5054278;28;20139;-70
2023/04/19 04:46:09;;;;;;;24.45;17.65;;;11.30;99.90;;;11.65;82.10;102560.72;5054244;28;20127;-70
2023/04/19 04:48:41;;;;;;;22.05;16.63;;;11.40;99.90;;;11.54;82.26;102567.56;5054074;28;20057;-70
2023/04/19 04:51:10;;;;;;;21.92;17.23;;;11.30;99.90;;;11.31;82.39;102547.69;5055393;28;20394;-70
2023/04/19 04:53:39;;;;;;;19.73;16.83;;;11.30;99.90;;;11.32;82.50;102546.84;5070683;28;20033;-70
2023/04/19 04:56:10;;;;;;;20.30;17.10;;;11.30;99.90;;;11.28;82.07;102520.25;5053866;28;20510;-70
2023/04/19 04:58:38;;;;;;;22.33;18.00;;;11.30;99.90;;;11.56;82.33;102568.50;5053921;28;20053;-70
2023/04/19 05:01:10;;;;;;;19.83;16.38;;;11.40;99.90;;;11.70;81.84;102582.03;5053894;28;20140;-70
2023/04/19 05:03:40;;;;;;;21.52;17.25;;;11.50;99.90;;;11.71;82.04;102576.75;5053937;28;20106;-70
2023/04/19 05:06:13;;;;;;;21.25;16.20;;;11.40;99.90;;;11.73;81.60;102568.81;5070477;28;20139;-70
2023/04/19 05:08:44;;;;;;;21.33;16.25;;;11.50;99.90;;;11.69;81.77;102580.25;5070419;28;20041;-70
2023/04/19 05:11:22;;;;;;;19.67;16.90;;;11.50;99.90;;;11.69;81.86;102578.47;5053545;28;20139;-70
2023/04/19 05:13:50;;;;;;;21.63;16.37;;;11.50;99.90;;;11.75;82.04;102583.00;5054963;28;20052;-70
2023/04/19 05:16:19;;;;;;;21.80;17.55;;;11.50;99.90;;;11.78;81.48;102569.81;5054742;28;20785;-70
2023/04/19 05:18:49;;;;;;;18.75;16.33;;;11.60;99.90;;;11.83;81.53;102578.72;5053580;28;20135;-70
2023/04/19 05:21:17;;;;;;;20.02;16.30;;;11.60;99.90;;;11.92;81.27;102575.38;5053395;28;20049;-70
2023/04/19 05:23:46;;;;;;;18.98;15.57;;;11.70;99.90;;;11.97;81.00;102574.56;5053431;28;20111;-70
2023/04/19 05:26:15;;;;;;;19.55;14.98;;;11.70;99.90;;;11.95;80.57;102573.66;5053140;28;20053;-64
2023/04/19 05:28:46;;;;;;;19.17;14.90;;;11.80;99.90;;;12.01;80.68;102575.50;5053331;28;20049;-70
2023/04/19 05:31:22;;;;;;;20.58;15.77;;;11.80;99.90;;;12.06;79.77;102584.47;5053372;28;20495;-70
2023/04/19 05:34:02;;;;;;;;;;;11.90;99.90;;;12.21;79.70;102577.66;5053754;28;20048;-69
2023/04/19 05:36:31;;;;;;;19.48;15.55;;;12.00;99.90;;;12.17;79.15;102583.78;5052891;28;19935;-69
2023/04/19 05:39:00;;;;;;;18.48;15.30;;;12.00;99.90;;;12.17;79.87;102546.63;5053127;28;20049;-70
2023/04/19 05:41:28;;;;;;;17.42;15.50;;;12.10;99.90;;;12.46;78.76;102584.22;5054070;28;20060;-70
2023/04/19 05:43:58;;;;;;;19.65;15.43;;;12.20;99.90;;;12.57;77.94;102579.97;5054348;28;20048;-69
2023/04/19 05:46:27;;;;;;;18.70;15.82;;;12.30;99.90;;;12.57;77.45;102580.88;5053390;28;20060;-69
2023/04/19 05:48:57;;;;;;;18.67;15.05;;;12.40;99.90;;;12.37;77.45;102560.19;5052784;28;20044;-69
2023/04/19 05:51:29;;;;;;;19.92;15.20;;;12.30;99.90;;;12.58;77.08;102579.13;5054214;28;20080;-69
2023/04/19 05:54:03;;;;;;;19.75;15.23;;;12.40;99.90;;;12.64;76.52;102589.78;5052798;28;20056;-69
2023/04/19 05:56:32;;;;;;;18.95;15.55;;;12.40;99.90;;;12.68;76.44;102595.19;5052659;28;20048;-70
2023/04/19 05:59:02;;;;;;;18.40;14.63;;;12.40;99.90;;;12.94;76.21;102589.34;5052564;28;20041;-70
2023/04/19 06:01:30;;;;;;;18.77;14.17;;;12.60;99.90;;;12.99;75.08;102592.97;5054244;28;20075;-70
2023/04/19 06:03:59;;;;;;;20.35;14.90;;;12.70;99.90;;;13.07;74.68;102599.28;5052589;28;20382;-70
2023/04/19 06:06:27;;;;;;;20.65;15.05;;;12.80;99.90;;;13.19;74.32;102592.38;5052215;28;20045;-70
2023/04/19 06:08:56;;;;;;;19.63;14.52;;;12.90;99.90;;;13.36;73.58;102598.78;5053796;28;20037;-71
2023/04/19 06:11:25;;;;;;;17.88;14.15;;;13.10;99.90;;;13.40;72.69;102600.59;5053719;28;20076;-71
2023/04/19 06:14:07;;;;;;;;;;;13.20;99.90;;;13.42;72.52;102600.63;5053882;28;20390;-71
2023/04/19 06:16:36;;;;;;;20.65;14.23;;;13.20;99.90;;;13.51;71.76;102598.09;5052005;28;19932;-71
2023/04/19 06:19:05;;;;;;;17.20;13.48;;;13.30;99.90;;;13.64;71.66;102609.72;5052250;28;20049;-72
2023/04/19 06:21:33;;;;;;;17.90;13.88;;;13.40;99.90;;;13.62;71.15;102600.84;5053924;28;20047;-71
2023/04/19 06:24:02;;;;;;;17.88;14.02;;;13.40;99.90;;;13.43;71.45;102594.44;5052726;28;20120;-71
2023/04/19 06:26:30;;;;;;;18.92;14.30;;;13.20;99.90;;;13.50;70.44;102610.47;5053310;28;20052;-71
2023/04/19 06:28:59;;;;;;;19.90;14.80;;;13.30;99.90;;;13.55;70.26;102608.75;5053742;28;20043;-71
2023/04/19 06:31:28;;;;;;;17.92;13.85;;;13.30;99.90;;;13.67;70.15;102605.34;5053163;28;20474;-71
2023/04/19 06:33:57;;;;;;;17.23;14.00;;;13.40;99.90;;;13.52;69.49;102607.84;5053701;28;20072;-71
2023/04/19 06:36:25;;;;;;;18.05;14.50;;;13.30;99.90;;;13.48;69.66;102588.31;5053115;28;20132;-71
2023/04/19 06:38:54;;;;;;;19.52;14.02;;;13.30;99.90;;;13.44;69.12;102607.75;5053242;28;20451;-71
2023/04/19 06:41:22;;;;;;;18.20;13.73;;;13.20;99.90;;;13.34;69.12;102591.66;5053219;28;20118;-71
2023/04/19 06:43:51;;;;;;;18.70;13.32;;;13.20;99.90;;;13.46;68.57;102600.69;5053457;28;20123;-71
2023/04/19 06:46:19;;;;;;;15.77;13.90;;;13.20;99.90;;;13.36;69.35;102606.75;5053466;28;20071;-71
2023/04/19 06:48:49;;;;;;;18.45;14.27;;;13.10;99.90;;;13.41;68.80;102590.88;5051725;28;20087;-72
2023/04/19 06:51:17;;;;;;;16.48;13.63;;;13.20;99.90;;;13.17;68.67;102599.44;5052792;28;20115;-71
2023/04/19 06:53:46;;;;;;;18.13;13.25;;;13.00;99.90;;;12.97;68.92;102608.88;5053086;28;20470;-71
2023/04/19 06:56:14;;;;;;;19.42;14.52;;;12.90;99.90;;;12.85;69.54;102607.81;5052680;28;20045;-71
2023/04/19 06:58:43;;;;;;;17.73;13.93;;;12.70;99.90;;;13.07;69.05;102626.75;5053233;28;20048;-70
2023/04/19 07:01:11;;;;;;;16.95;13.60;;;12.90;99.90;;;13.32;68.03;102596.06;5053176;28;20041;-71
2023/04/19 07:03:40;;;;;;;18.48;14.13;;;13.00;99.90;;;13.36;67.17;102598.78;5052658;28;20052;-72
2023/04/19 07:06:10;;;;;;;18.65;13.60;;;13.10;99.90;;;13.37;67.21;102611.22;5052604;28;20047;-71
2023/04/19 07:08:38;;;;;;;15.68;13.30;;;13.10;99.90;;;13.49;67.42;102611.34;5052513;28;20044;-68
2023/04/19 07:11:17;;;;;;;18.33;13.80;;;13.20;99.90;;;13.67;66.21;102615.97;5051587;28;20044;-68
2023/04/19 07:13:48;;;;;;;16.83;12.77;;;13.50;99.90;;;13.66;66.36;102608.88;5052804;28;20123;-71
2023/04/19 07:16:16;;;;;;;15.70;13.25;;;13.40;99.90;;;13.88;65.17;102610.00;5052351;28;20049;-70
2023/04/19 07:18:44;;;;;;;15.35;13.50;;;13.60;99.90;;;13.93;64.12;102617.16;5052812;28;20103;-70
2023/04/19 07:21:15;;;;;;;17.83;13.35;;;13.70;99.90;;;13.79;64.64;102615.22;5052600;28;20063;-71
2023/04/19 07:23:43;;;;;;;17.95;13.55;;;13.60;99.90;;;13.99;64.18;102589.72;5052299;28;20045;-71
2023/04/19 07:26:13;;;;;;;14.65;13.10;;;13.80;99.90;;;13.94;64.30;102610.03;5052222;28;20515;-74
2023/04/19 07:28:42;;;;;;;17.38;13.05;;;13.70;99.90;;;13.48;63.67;102527.16;5052316;28;20041;-70
2023/04/19 07:31:16;;;;;;;14.60;12.55;;;13.80;99.90;;;14.16;62.98;102604.06;5052169;28;20482;-70
2023/04/19 07:33:45;;;;;;;14.50;11.80;;;13.90;99.90;;;14.50;62.47;102615.91;5052319;28;20571;-71
2023/04/19 07:36:15;;;;;;;13.52;12.13;;;14.20;99.90;;;14.62;61.21;102608.88;5053776;28;20512;-71
2023/04/19 07:38:44;;;;;;;13.70;12.00;;;14.30;99.90;;;14.62;60.11;102602.66;5055232;28;20067;-70
2023/04/19 07:41:12;;;;;;;14.93;12.32;;;14.40;99.90;;;14.61;59.79;102601.78;5056789;28;20044;-69
2023/04/19 07:43:41;;;;;;;14.00;11.68;;;14.40;99.90;;;14.69;59.20;102601.84;5056906;28;20067;-73
2023/04/19 07:46:10;;;;;;;15.52;12.23;;;14.50;99.90;;;14.10;58.61;102604.91;5056814;28;20047;-71
2023/04/19 07:48:39;;;;;;;14.23;12.00;;;14.10;99.90;;;13.87;60.79;102605.53;5056724;28;20056;-70
2023/04/19 07:51:12;;;;;;;16.98;12.20;;;13.60;99.90;;;13.69;59.72;102592.94;5055019;28;20052;-70
2023/04/19 07:53:43;;;;;;;17.60;12.13;;;13.60;99.90;;;13.84;59.42;102592.22;5056192;28;20045;-71
2023/04/19 07:56:13;;;;;;;16.10;12.70;;;13.60;99.90;;;14.12;59.58;102605.81;5056546;28;20041;-70
2023/04/19 07:58:41;;;;;;;14.05;12.02;;;13.80;99.90;;;13.95;59.58;102586.13;5054879;28;20041;-70
2023/04/19 08:01:11;;;;;;;17.02;12.20;;;13.60;99.90;;;13.97;58.55;102580.81;5055947;28;20044;-69
2023/04/19 08:03:40;;;;;;;17.88;12.25;;;13.70;99.90;;;14.44;57.70;102606.06;5056431;28;20045;-70
2023/04/19 08:06:09;;;;;;;15.60;11.85;;;14.10;99.90;;;14.32;58.16;102590.03;5055864;28;20041;-70
2023/04/19 08:08:38;;;;;;;16.20;12.40;;;14.10;99.90;;;13.77;59.33;102585.03;5055837;28;20098;-70
2023/04/19 08:11:07;;;;;;;14.52;11.32;;;13.70;99.90;;;14.21;57.14;102600.53;5056233;28;20039;-70
2023/04/19 08:13:36;;;;;;;14.18;11.48;;;13.90;99.90;;;14.17;57.30;102588.09;5055758;28;20119;-72
2023/04/19 08:16:04;;;;;;;15.80;11.55;;;13.90;99.90;;;14.44;56.71;102587.44;5055992;28;20425;-72
2023/04/19 08:18:36;;;;;;;14.73;11.25;;;14.20;99.90;;;14.58;56.55;102588.44;5055608;28;20490;-71
2023/04/19 08:21:05;;;;;;;14.48;11.38;;;14.40;99.90;;;14.56;56.35;102581.31;5055571;28;20397;-72
2023/04/19 08:23:33;;;;;;;12.05;10.73;;;14.40;99.90;;;14.77;55.95;102587.66;5055880;28;20049;-72
2023/04/19 08:26:16;;;;;;;12.85;10.77;;;14.50;99.90;;;14.98;55.27;102582.44;5055633;28;20044;-72
2023/04/19 08:28:45;;;;;;;13.68;11.23;;;14.70;99.90;;;15.19;54.55;102584.34;5055683;28;20072;-72
2023/04/19 08:31:13;;;;;;;12.35;10.00;;;15.00;99.90;;;15.24;54.54;102580.81;5054496;28;20068;-72
2023/04/19 08:33:42;;;;;;;13.90;10.60;;;15.10;99.90;;;15.32;54.31;102587.06;5055400;28;20128;-71
2023/04/19 08:36:11;;;;;;;15.85;10.10;;;15.10;99.90;;;15.26;53.03;102567.47;5055227;28;20056;-73
2023/04/19 08:38:44;;;;;;;12.07;10.40;;;15.20;99.90;;;15.35;52.58;102584.41;5055604;28;20037;-70
2023/04/19 08:41:28;;;;;;;11.60;10.20;;;15.20;99.90;;;15.42;52.14;102565.78;5055381;28;20474;-70
2023/04/19 08:43:58;;;;;;;12.35;10.57;;;15.30;99.90;;;15.19;52.06;102579.88;5055657;28;20041;-70
2023/04/19 08:46:27;;;;;;;13.85;10.43;;;15.10;99.90;;;15.56;52.58;102586.28;5055038;28;20375;-72
2023/04/19 08:48:57;;;;;;;14.32;10.57;;;15.30;99.90;;;15.38;52.05;102576.44;5054204;28;20068;-69
2023/04/19 08:51:28;;;;;;;14.63;10.35;;;15.30;99.90;;;15.56;51.41;102569.38;5055083;28;20037;-70
2023/04/19 08:53:56;;;;;;;;;;;15.30;99.90;;;15.19;51.49;102577.22;5055396;28;20095;-71
2023/04/19 08:56:27;;;;;;;13.02;10.02;;;15.10;99.90;;;15.30;52.49;102586.16;5054919;28;19927;-71
2023/04/19 08:59:03;;;;;;;12.38;9.88;;;15.10;99.90;;;15.03;51.95;102510.53;5055177;28;20091;-72
2023/04/19 09:01:38;;;;;;;12.07;10.32;;;15.20;99.90;;;15.71;51.31;102588.09;5055197;28;20068;-69
2023/04/19 09:04:10;;;;;;;13.77;9.52;;;15.50;99.90;;;15.95;50.67;102583.66;5053964;28;20044;-69
2023/04/19 09:06:59;;;;;;;11.23;9.38;;;15.70;99.90;;;16.05;49.99;102572.13;5055090;28;20505;-69
2023/04/19 09:09:29;;;;;;;11.13;9.23;;;15.80;99.90;;;15.84;49.85;102524.06;5054863;28;20037;-68
2023/04/19 09:12:03;;;;;;;9.75;8.75;;;15.90;99.90;;;16.10;48.84;102567.66;5053782;28;20098;-67
2023/04/19 09:14:31;;;;;;;10.43;8.52;;;16.00;99.90;;;16.26;48.64;102580.13;5054619;28;20033;-71
2023/04/19 09:17:13;;;;;;;11.88;8.23;;;16.10;99.90;;;16.32;47.11;102568.53;5054788;28;20037;-71
2023/04/19 09:19:46;;;;;;;10.77;7.85;;;16.20;99.90;;;16.32;46.61;102576.56;5054811;28;20041;-71
2023/04/19 09:22:15;;;;;;;10.93;8.35;;;16.10;99.90;;;16.27;46.67;102549.88;5086992;28;20073;-71
2023/04/19 09:24:44;;;;;;;8.90;7.68;;;16.10;99.90;;;16.32;46.16;102571.22;5053386;28;20064;-71
2023/04/19 09:27:26;;;;;;;12.82;8.05;;;16.10;99.90;;;16.43;45.59;102565.88;5054391;28;20098;-70
2023/04/19 09:29:55;;;;;;;12.85;7.85;;;16.20;99.90;;;16.54;45.94;102564.09;5054285;28;20041;-70
2023/04/19 09:32:24;;;;;;;10.48;7.93;;;16.30;99.90;;;16.82;45.66;102579.22;5054262;28;20135;-71
2023/04/19 09:34:55;;;;;;;11.35;7.35;;;16.60;99.90;;;16.71;44.73;102583.66;5054212;28;20079;-71
2023/04/19 09:37:24;;;;;;;;;;;16.60;99.90;;;16.21;45.20;102573.00;5053315;28;20143;-71
2023/04/19 09:40:26;;;;;;;12.57;7.53;;;16.20;99.90;;;15.87;46.06;102563.22;5054108;28;20043;-71
2023/04/19 09:42:56;;;;;;;8.70;7.13;;;15.70;99.90;;;16.32;45.76;102563.22;5054392;28;20068;-70
2023/04/19 09:45:27;;;;;;;9.43;7.40;;;16.00;99.90;;;16.32;44.71;102557.00;5054124;28;20053;-71
2023/04/19 09:48:03;;;;;;;11.25;7.28;;;16.10;99.90;;;16.61;45.18;102550.72;5053024;28;20060;-71
2023/04/19 09:50:32;;;;;;;9.38;7.05;;;16.30;99.90;;;16.78;44.18;102553.38;5053957;28;20398;-71
2023/04/19 09:53:18;;;;;;;10.52;7.47;;;16.50;99.90;;;16.78;43.99;102567.59;5054460;28;20123;-70
2023/04/19 09:55:47;;;;;;;10.30;7.07;;;16.60;99.90;;;16.93;43.03;102554.22;5053803;28;20040;-71
2023/04/19 09:58:30;;;;;;;9.68;6.72;;;16.70;99.90;;;16.93;42.60;102531.94;5052875;28;20483;-71
2023/04/19 10:01:01;;;;;;;14.25;7.25;;;16.80;99.90;;;17.12;42.02;102563.94;5053755;28;20125;-71
2023/04/19 10:03:45;;;;;;;10.00;7.25;;;16.90;99.90;;;16.90;42.82;102562.22;5053744;28;20059;-71
2023/04/19 10:06:17;;;;;;;8.75;6.78;;;16.80;99.90;;;16.92;42.65;102547.06;5054167;28;20037;-71
2023/04/19 10:08:50;;;;;;;9.75;7.22;;;16.90;99.90;;;17.24;41.72;102556.75;5053781;28;20069;-71
2023/04/19 10:11:21;;;;;;;8.23;6.60;;;17.00;99.90;;;17.18;41.76;102538.94;5053644;28;20044;-72
2023/04/19 10:13:57;;;;;;;7.43;6.63;;;17.00;99.90;;;15.03;43.77;102532.75;5053723;28;20073;-71
2023/04/19 10:16:26;;;;;;;9.88;6.70;;;15.50;99.90;;;16.11;43.15;102544.53;5053567;28;20665;-71